sensor_id;sensor_type;location;lat;lon;timestamp;temperature;humidity
65470;DHT22;52067;50.710;14.492;2022-12-13T00:01:25;-2.79;82.24
65470;DHT22;52067;50.710;14.492;2022-12-13T00:03:52;-2.55;81.52
65470;DHT22;52067;50.710;14.492;2022-12-13T00:06:18;-2.40;80.94
65470;DHT22;52067;50.710;14.492;2022-12-13T00:08:43;-2.34;80.14
65470;DHT22;52067;50.710;14.492;2022-12-13T00:11:11;-2.44;80.70
65470;DHT22;52067;50.710;14.492;2022-12-13T00:13:37;-2.42;81.26
65470;DHT22;52067;50.710;14.492;2022-12-13T00:16:05;-2.52;81.32
65470;DHT22;52067;50.710;14.492;2022-12-13T00:18:31;-2.64;81.09
65470;DHT22;52067;50.710;14.492;2022-12-13T00:20:57;-2.45;80.91
65470;DHT22;52067;50.710;14.492;2022-12-13T00:23:23;-2.45;80.31
65470;DHT22;52067;50.710;14.492;2022-12-13T00:25:49;-2.82;82.02
65470;DHT22;52067;50.710;14.492;2022-12-13T00:28:14;-3.00;83.53
65470;DHT22;52067;50.710;14.492;2022-12-13T00:30:40;-2.87;83.76
65470;DHT22;52067;50.710;14.492;2022-12-13T00:33:06;-2.62;82.47
65470;DHT22;52067;50.710;14.492;2022-12-13T00:35:32;-2.72;82.36
65470;DHT22;52067;50.710;14.492;2022-12-13T00:37:57;-2.58;82.51
65470;DHT22;52067;50.710;14.492;2022-12-13T00:40:23;-2.55;83.11
65470;DHT22;52067;50.710;14.492;2022-12-13T00:42:48;-2.66;83.06
65470;DHT22;52067;50.710;14.492;2022-12-13T00:45:14;-2.99;84.26
65470;DHT22;52067;50.710;14.492;2022-12-13T00:47:39;-2.80;84.46
65470;DHT22;52067;50.710;14.492;2022-12-13T00:50:05;-2.66;83.26
65470;DHT22;52067;50.710;14.492;2022-12-13T00:52:32;-2.96;84.46
65470;DHT22;52067;50.710;14.492;2022-12-13T00:54:58;-2.73;83.69
65470;DHT22;52067;50.710;14.492;2022-12-13T00:57:23;-2.58;82.95
65470;DHT22;52067;50.710;14.492;2022-12-13T00:59:49;-2.52;82.72
65470;DHT22;52067;50.710;14.492;2022-12-13T01:02:14;-2.44;82.00
65470;DHT22;52067;50.710;14.492;2022-12-13T01:04:39;-2.54;82.11
65470;DHT22;52067;50.710;14.492;2022-12-13T01:07:05;-2.51;82.16
65470;DHT22;52067;50.710;14.492;2022-12-13T01:09:30;-2.77;83.46
65470;DHT22;52067;50.710;14.492;2022-12-13T01:12:04;-2.75;83.35
65470;DHT22;52067;50.710;14.492;2022-12-13T01:14:30;-3.04;85.37
65470;DHT22;52067;50.710;14.492;2022-12-13T01:16:56;-2.76;83.85
65470;DHT22;52067;50.710;14.492;2022-12-13T01:19:23;-2.80;83.61
65470;DHT22;52067;50.710;14.492;2022-12-13T01:21:52;-2.69;84.14
65470;DHT22;52067;50.710;14.492;2022-12-13T01:24:18;-2.70;83.57
65470;DHT22;52067;50.710;14.492;2022-12-13T01:26:45;-2.58;82.92
65470;DHT22;52067;50.710;14.492;2022-12-13T01:29:11;-2.68;83.20
65470;DHT22;52067;50.710;14.492;2022-12-13T01:31:36;-2.68;83.06
65470;DHT22;52067;50.710;14.492;2022-12-13T01:34:06;-2.75;84.12
65470;DHT22;52067;50.710;14.492;2022-12-13T01:36:34;-2.68;83.35
65470;DHT22;52067;50.710;14.492;2022-12-13T01:39:00;-2.52;83.18
65470;DHT22;52067;50.710;14.492;2022-12-13T01:41:27;-2.69;82.62
65470;DHT22;52067;50.710;14.492;2022-12-13T01:43:54;-2.61;83.45
65470;DHT22;52067;50.710;14.492;2022-12-13T01:46:21;-2.40;82.06
65470;DHT22;52067;50.710;14.492;2022-12-13T01:48:55;-2.35;81.69
65470;DHT22;52067;50.710;14.492;2022-12-13T01:51:24;-2.35;82.01
65470;DHT22;52067;50.710;14.492;2022-12-13T01:53:51;-2.30;81.31
65470;DHT22;52067;50.710;14.492;2022-12-13T01:56:32;-2.35;81.25
65470;DHT22;52067;50.710;14.492;2022-12-13T01:59:02;-3.07;84.28
65470;DHT22;52067;50.710;14.492;2022-12-13T02:01:28;-2.72;83.51
65470;DHT22;52067;50.710;14.492;2022-12-13T02:03:54;-2.64;82.94
65470;DHT22;52067;50.710;14.492;2022-12-13T02:06:28;-2.75;83.24
65470;DHT22;52067;50.710;14.492;2022-12-13T02:08:55;-2.65;82.66
65470;DHT22;52067;50.710;14.492;2022-12-13T02:11:21;-2.45;82.85
65470;DHT22;52067;50.710;14.492;2022-12-13T02:13:47;-2.45;82.41
65470;DHT22;52067;50.710;14.492;2022-12-13T02:21:37;-2.52;82.80
65470;DHT22;52067;50.710;14.492;2022-12-13T02:32:09;-2.48;82.95
65470;DHT22;52067;50.710;14.492;2022-12-13T02:34:51;-2.44;82.60
65470;DHT22;52067;50.710;14.492;2022-12-13T02:40:11;-2.37;82.51
65470;DHT22;52067;50.710;14.492;2022-12-13T02:43:06;-2.41;82.61
65470;DHT22;52067;50.710;14.492;2022-12-13T02:45:40;-2.42;82.45
65470;DHT22;52067;50.710;14.492;2022-12-13T02:48:10;-2.44;82.46
65470;DHT22;52067;50.710;14.492;2022-12-13T02:50:36;-2.44;81.86
65470;DHT22;52067;50.710;14.492;2022-12-13T02:53:04;-2.55;82.11
65470;DHT22;52067;50.710;14.492;2022-12-13T02:55:30;-3.03;83.42
65470;DHT22;52067;50.710;14.492;2022-12-13T02:57:59;-2.73;83.13
65470;DHT22;52067;50.710;14.492;2022-12-13T03:15:29;-3.03;83.48
65470;DHT22;52067;50.710;14.492;2022-12-13T03:17:35;-2.86;83.41
65470;DHT22;52067;50.710;14.492;2022-12-13T03:20:03;-2.83;83.17
65470;DHT22;52067;50.710;14.492;2022-12-13T03:22:32;-3.24;85.53
65470;DHT22;52067;50.710;14.492;2022-12-13T03:24:58;-3.07;85.04
65470;DHT22;52067;50.710;14.492;2022-12-13T03:27:23;-3.01;85.00
65470;DHT22;52067;50.710;14.492;2022-12-13T03:29:48;-2.90;84.02
65470;DHT22;52067;50.710;14.492;2022-12-13T03:32:14;-2.70;83.74
65470;DHT22;52067;50.710;14.492;2022-12-13T03:34:39;-2.75;82.76
65470;DHT22;52067;50.710;14.492;2022-12-13T03:37:04;-2.79;82.96
65470;DHT22;52067;50.710;14.492;2022-12-13T03:39:30;-3.08;83.50
65470;DHT22;52067;50.710;14.492;2022-12-13T03:41:55;-3.47;85.74
65470;DHT22;52067;50.710;14.492;2022-12-13T03:44:21;-3.20;85.05
65470;DHT22;52067;50.710;14.492;2022-12-13T03:46:46;-3.14;84.66
65470;DHT22;52067;50.710;14.492;2022-12-13T03:49:11;-3.15;79.29
65470;DHT22;52067;50.710;14.492;2022-12-13T03:51:37;-3.17;83.42
65470;DHT22;52067;50.710;14.492;2022-12-13T03:54:02;-3.08;83.21
65470;DHT22;52067;50.710;14.492;2022-12-13T03:56:27;-2.83;82.84
65470;DHT22;52067;50.710;14.492;2022-12-13T03:58:53;-2.82;82.47
65470;DHT22;52067;50.710;14.492;2022-12-13T04:01:18;-2.89;82.20
65470;DHT22;52067;50.710;14.492;2022-12-13T04:03:45;-2.90;82.69
65470;DHT22;52067;50.710;14.492;2022-12-13T04:06:12;-2.93;83.71
65470;DHT22;52067;50.710;14.492;2022-12-13T04:08:38;-2.86;83.03
65470;DHT22;52067;50.710;14.492;2022-12-13T04:11:04;-2.77;82.76
65470;DHT22;52067;50.710;14.492;2022-12-13T04:13:50;-2.65;81.54
65470;DHT22;52067;50.710;14.492;2022-12-13T04:16:16;-2.54;81.17
65470;DHT22;52067;50.710;14.492;2022-12-13T04:18:41;-2.75;80.96
65470;DHT22;52067;50.710;14.492;2022-12-13T04:21:07;-2.62;80.59
65470;DHT22;52067;50.710;14.492;2022-12-13T04:23:32;-2.49;81.15
65470;DHT22;52067;50.710;14.492;2022-12-13T04:25:58;-2.65;79.55
65470;DHT22;52067;50.710;14.492;2022-12-13T04:28:24;-2.85;78.86
65470;DHT22;52067;50.710;14.492;2022-12-13T04:30:50;-2.93;81.46
65470;DHT22;52067;50.710;14.492;2022-12-13T04:33:16;-2.80;81.75
65470;DHT22;52067;50.710;14.492;2022-12-13T04:35:41;-2.83;80.47
65470;DHT22;52067;50.710;14.492;2022-12-13T04:38:06;-2.72;80.46
65470;DHT22;52067;50.710;14.492;2022-12-13T04:40:32;-2.85;79.47
65470;DHT22;52067;50.710;14.492;2022-12-13T04:42:57;-2.82;80.30
65470;DHT22;52067;50.710;14.492;2022-12-13T04:45:23;-2.85;77.92
65470;DHT22;52067;50.710;14.492;2022-12-13T04:47:48;-2.82;77.49
65470;DHT22;52067;50.710;14.492;2022-12-13T04:50:14;-2.72;76.44
65470;DHT22;52067;50.710;14.492;2022-12-13T04:52:40;-2.70;75.46
65470;DHT22;52067;50.710;14.492;2022-12-13T04:55:06;-2.68;74.98
65470;DHT22;52067;50.710;14.492;2022-12-13T04:57:33;-2.65;75.46
65470;DHT22;52067;50.710;14.492;2022-12-13T04:59:58;-2.68;76.55
65470;DHT22;52067;50.710;14.492;2022-12-13T05:02:24;-2.70;80.06
65470;DHT22;52067;50.710;14.492;2022-12-13T05:04:50;-2.76;80.77
65470;DHT22;52067;50.710;14.492;2022-12-13T05:07:15;-2.90;80.76
65470;DHT22;52067;50.710;14.492;2022-12-13T05:09:41;-2.82;78.65
65470;DHT22;52067;50.710;14.492;2022-12-13T05:12:06;-2.79;80.25
65470;DHT22;52067;50.710;14.492;2022-12-13T05:14:32;-2.79;80.90
65470;DHT22;52067;50.710;14.492;2022-12-13T05:17:00;-2.82;81.51
65470;DHT22;52067;50.710;14.492;2022-12-13T05:19:26;-2.72;81.57
65470;DHT22;52067;50.710;14.492;2022-12-13T05:21:52;-2.70;81.43
65470;DHT22;52067;50.710;14.492;2022-12-13T05:24:17;-2.59;80.53
65470;DHT22;52067;50.710;14.492;2022-12-13T05:26:42;-2.87;80.39
65470;DHT22;52067;50.710;14.492;2022-12-13T05:29:08;-2.80;81.92
65470;DHT22;52067;50.710;14.492;2022-12-13T05:31:33;-2.75;81.82
65470;DHT22;52067;50.710;14.492;2022-12-13T05:33:58;-2.77;80.98
65470;DHT22;52067;50.710;14.492;2022-12-13T05:36:24;-2.96;79.61
65470;DHT22;52067;50.710;14.492;2022-12-13T05:38:50;-3.41;79.25
65470;DHT22;52067;50.710;14.492;2022-12-13T05:41:22;-3.28;80.00
65470;DHT22;52067;50.710;14.492;2022-12-13T05:43:50;-3.45;80.21
65470;DHT22;52067;50.710;14.492;2022-12-13T05:46:16;-3.52;79.91
65470;DHT22;52067;50.710;14.492;2022-12-13T05:48:42;-3.68;79.28
65470;DHT22;52067;50.710;14.492;2022-12-13T05:51:08;-3.81;80.48
65470;DHT22;52067;50.710;14.492;2022-12-13T05:53:34;-3.94;81.08
65470;DHT22;52067;50.710;14.492;2022-12-13T05:56:00;-4.18;79.78
65470;DHT22;52067;50.710;14.492;2022-12-13T05:58:26;-4.25;79.97
65470;DHT22;52067;50.710;14.492;2022-12-13T06:00:51;-4.41;81.06
65470;DHT22;52067;50.710;14.492;2022-12-13T06:03:16;-4.76;80.07
65470;DHT22;52067;50.710;14.492;2022-12-13T06:05:42;-4.88;79.02
65470;DHT22;52067;50.710;14.492;2022-12-13T06:08:09;-5.16;77.97
65470;DHT22;52067;50.710;14.492;2022-12-13T06:10:34;-5.72;77.99
65470;DHT22;52067;50.710;14.492;2022-12-13T06:12:59;-5.96;77.51
65470;DHT22;52067;50.710;14.492;2022-12-13T06:15:25;-6.23;80.24
65470;DHT22;52067;50.710;14.492;2022-12-13T06:17:50;-6.27;82.54
65470;DHT22;52067;50.710;14.492;2022-12-13T06:20:16;-6.44;83.15
65470;DHT22;52067;50.710;14.492;2022-12-13T06:22:42;-6.50;82.32
65470;DHT22;52067;50.710;14.492;2022-12-13T06:25:07;-6.44;81.42
65470;DHT22;52067;50.710;14.492;2022-12-13T06:27:33;-6.50;81.49
65470;DHT22;52067;50.710;14.492;2022-12-13T06:29:58;-6.61;83.37
65470;DHT22;52067;50.710;14.492;2022-12-13T06:32:23;-6.74;82.56
65470;DHT22;52067;50.710;14.492;2022-12-13T06:34:49;-6.72;82.86
65470;DHT22;52067;50.710;14.492;2022-12-13T06:37:14;-7.08;82.36
65470;DHT22;52067;50.710;14.492;2022-12-13T06:39:39;-7.23;83.13
65470;DHT22;52067;50.710;14.492;2022-12-13T06:42:06;-7.64;82.08
65470;DHT22;52067;50.710;14.492;2022-12-13T06:44:33;-7.53;84.47
65470;DHT22;52067;50.710;14.492;2022-12-13T06:46:59;-7.51;84.16
65470;DHT22;52067;50.710;14.492;2022-12-13T06:49:25;-7.54;82.57
65470;DHT22;52067;50.710;14.492;2022-12-13T06:51:50;-7.78;80.49
65470;DHT22;52067;50.710;14.492;2022-12-13T06:54:15;-7.88;83.02
65470;DHT22;52067;50.710;14.492;2022-12-13T06:56:41;-8.08;84.57
65470;DHT22;52067;50.710;14.492;2022-12-13T06:59:06;-8.37;84.80
65470;DHT22;52067;50.710;14.492;2022-12-13T07:01:32;-8.16;83.43
65470;DHT22;52067;50.710;14.492;2022-12-13T07:03:57;-8.16;82.61
65470;DHT22;52067;50.710;14.492;2022-12-13T07:06:24;-8.26;87.35
65470;DHT22;52067;50.710;14.492;2022-12-13T07:08:54;-8.23;86.63
65470;DHT22;52067;50.710;14.492;2022-12-13T07:11:23;-8.28;85.44
65470;DHT22;52067;50.710;14.492;2022-12-13T07:13:50;-8.26;87.07
65470;DHT22;52067;50.710;14.492;2022-12-13T07:16:15;-8.29;86.45
65470;DHT22;52067;50.710;14.492;2022-12-13T07:18:41;-8.28;83.94
65470;DHT22;52067;50.710;14.492;2022-12-13T07:21:08;-8.20;83.72
65470;DHT22;52067;50.710;14.492;2022-12-13T07:23:34;-8.29;85.57
65470;DHT22;52067;50.710;14.492;2022-12-13T07:25:59;-8.44;87.25
65470;DHT22;52067;50.710;14.492;2022-12-13T07:28:25;-8.47;86.69
65470;DHT22;52067;50.710;14.492;2022-12-13T07:30:50;-8.33;84.25
65470;DHT22;52067;50.710;14.492;2022-12-13T07:33:16;-8.41;82.85
65470;DHT22;52067;50.710;14.492;2022-12-13T07:35:42;-8.34;82.49
65470;DHT22;52067;50.710;14.492;2022-12-13T07:38:08;-8.29;82.10
65470;DHT22;52067;50.710;14.492;2022-12-13T07:40:35;-8.26;82.99
65470;DHT22;52067;50.710;14.492;2022-12-13T07:43:01;-8.11;82.72
65470;DHT22;52067;50.710;14.492;2022-12-13T07:45:26;-8.51;82.38
65470;DHT22;52067;50.710;14.492;2022-12-13T07:47:52;-8.46;84.15
65470;DHT22;52067;50.710;14.492;2022-12-13T07:50:17;-8.85;83.29
65470;DHT22;52067;50.710;14.492;2022-12-13T07:52:48;-8.58;86.23
65470;DHT22;52067;50.710;14.492;2022-12-13T07:55:15;-8.30;86.57
65470;DHT22;52067;50.710;14.492;2022-12-13T07:57:42;-8.30;85.39
65470;DHT22;52067;50.710;14.492;2022-12-13T08:00:08;-8.25;84.70
65470;DHT22;52067;50.710;14.492;2022-12-13T08:02:33;-8.19;83.39
65470;DHT22;52067;50.710;14.492;2022-12-13T08:04:59;-8.18;82.62
65470;DHT22;52067;50.710;14.492;2022-12-13T08:07:24;-7.91;82.37
65470;DHT22;52067;50.710;14.492;2022-12-13T08:09:50;-8.01;84.44
65470;DHT22;52067;50.710;14.492;2022-12-13T08:12:15;-8.11;85.65
65470;DHT22;52067;50.710;14.492;2022-12-13T08:14:41;-7.98;84.91
65470;DHT22;52067;50.710;14.492;2022-12-13T08:17:06;-7.84;84.62
65470;DHT22;52067;50.710;14.492;2022-12-13T08:19:31;-7.15;81.47
65470;DHT22;52067;50.710;14.492;2022-12-13T08:21:57;-6.34;78.44
65470;DHT22;52067;50.710;14.492;2022-12-13T08:24:24;-6.05;73.97
65470;DHT22;52067;50.710;14.492;2022-12-13T08:26:50;-6.14;74.65
65470;DHT22;52067;50.710;14.492;2022-12-13T08:29:16;-5.57;75.73
65470;DHT22;52067;50.710;14.492;2022-12-13T08:31:42;-4.79;72.77
65470;DHT22;52067;50.710;14.492;2022-12-13T08:34:07;-3.83;69.54
65470;DHT22;52067;50.710;14.492;2022-12-13T08:36:33;-3.11;65.99
65470;DHT22;52067;50.710;14.492;2022-12-13T08:38:58;-2.21;63.47
65470;DHT22;52067;50.710;14.492;2022-12-13T08:41:27;-1.58;59.75
65470;DHT22;52067;50.710;14.492;2022-12-13T08:43:52;-0.90;57.19
65470;DHT22;52067;50.710;14.492;2022-12-13T08:46:18;-1.56;53.47
65470;DHT22;52067;50.710;14.492;2022-12-13T08:48:43;-0.83;49.56
65470;DHT22;52067;50.710;14.492;2022-12-13T08:51:10;-0.26;49.16
65470;DHT22;52067;50.710;14.492;2022-12-13T08:53:37;-0.55;52.47
65470;DHT22;52067;50.710;14.492;2022-12-13T08:56:04;-1.77;55.55
65470;DHT22;52067;50.710;14.492;2022-12-13T08:58:30;-2.44;57.69
65470;DHT22;52067;50.710;14.492;2022-12-13T09:00:56;-2.58;60.23
65470;DHT22;52067;50.710;14.492;2022-12-13T09:03:22;-2.46;60.38
65470;DHT22;52067;50.710;14.492;2022-12-13T09:05:47;-3.07;62.18
65470;DHT22;52067;50.710;14.492;2022-12-13T09:08:13;-3.25;62.41
65470;DHT22;52067;50.710;14.492;2022-12-13T09:10:38;-3.71;64.25
65470;DHT22;52067;50.710;14.492;2022-12-13T09:13:03;-3.68;65.30
65470;DHT22;52067;50.710;14.492;2022-12-13T09:15:30;-4.17;66.79
65470;DHT22;52067;50.710;14.492;2022-12-13T09:17:56;-4.95;69.94
65470;DHT22;52067;50.710;14.492;2022-12-13T09:20:21;-4.71;69.45
65470;DHT22;52067;50.710;14.492;2022-12-13T09:22:47;-5.58;73.64
65470;DHT22;52067;50.710;14.492;2022-12-13T09:25:12;-5.50;71.84
65470;DHT22;52067;50.710;14.492;2022-12-13T09:27:38;-5.02;71.77
65470;DHT22;52067;50.710;14.492;2022-12-13T09:30:04;-4.35;69.52
65470;DHT22;52067;50.710;14.492;2022-12-13T09:32:30;-4.02;68.73
65470;DHT22;52067;50.710;14.492;2022-12-13T09:34:55;-4.52;70.01
65470;DHT22;52067;50.710;14.492;2022-12-13T09:37:21;-4.96;70.87
65470;DHT22;52067;50.710;14.492;2022-12-13T09:39:46;-3.71;68.67
65470;DHT22;52067;50.710;14.492;2022-12-13T09:42:21;-2.94;60.96
65470;DHT22;52067;50.710;14.492;2022-12-13T09:44:51;-2.45;62.08
65470;DHT22;52067;50.710;14.492;2022-12-13T09:47:41;-2.23;62.55
65470;DHT22;52067;50.710;14.492;2022-12-13T09:50:10;-1.87;62.31
65470;DHT22;52067;50.710;14.492;2022-12-13T09:52:41;-1.94;61.86
65470;DHT22;52067;50.710;14.492;2022-12-13T09:55:43;-1.79;62.66
65470;DHT22;52067;50.710;14.492;2022-12-13T09:58:23;-1.63;62.66
65470;DHT22;52067;50.710;14.492;2022-12-13T10:00:51;-1.41;62.51
65470;DHT22;52067;50.710;14.492;2022-12-13T10:03:18;-1.45;62.79
65470;DHT22;52067;50.710;14.492;2022-12-13T10:08:31;-1.60;64.33
65470;DHT22;52067;50.710;14.492;2022-12-13T10:10:57;-0.84;61.72
65470;DHT22;52067;50.710;14.492;2022-12-13T10:13:51;-0.32;60.21
65470;DHT22;52067;50.710;14.492;2022-12-13T10:19:15;3.58;50.96
65470;DHT22;52067;50.710;14.492;2022-12-13T10:21:43;5.31;45.42
65470;DHT22;52067;50.710;14.492;2022-12-13T10:26:47;7.63;37.64
65470;DHT22;52067;50.710;14.492;2022-12-13T10:29:13;8.46;36.93
65470;DHT22;52067;50.710;14.492;2022-12-13T10:31:43;8.81;35.05
65470;DHT22;52067;50.710;14.492;2022-12-13T10:34:29;9.36;33.89
65470;DHT22;52067;50.710;14.492;2022-12-13T10:37:20;9.76;34.21
65470;DHT22;52067;50.710;14.492;2022-12-13T10:39:50;9.70;33.17
65470;DHT22;52067;50.710;14.492;2022-12-13T10:42:17;9.47;32.40
65470;DHT22;52067;50.710;14.492;2022-12-13T10:44:43;9.91;32.47
65470;DHT22;52067;50.710;14.492;2022-12-13T10:52:06;10.25;33.63
65470;DHT22;52067;50.710;14.492;2022-12-13T10:54:43;10.27;32.25
65470;DHT22;52067;50.710;14.492;2022-12-13T10:57:10;9.74;33.99
65470;DHT22;52067;50.710;14.492;2022-12-13T10:59:37;10.35;32.22
65470;DHT22;52067;50.710;14.492;2022-12-13T11:04:53;8.70;35.44
65470;DHT22;52067;50.710;14.492;2022-12-13T11:07:28;8.89;36.51
65470;DHT22;52067;50.710;14.492;2022-12-13T11:09:54;10.01;33.38
65470;DHT22;52067;50.710;14.492;2022-12-13T11:12:24;10.30;32.40
65470;DHT22;52067;50.710;14.492;2022-12-13T11:14:59;10.46;32.15
65470;DHT22;52067;50.710;14.492;2022-12-13T11:17:28;11.17;31.69
65470;DHT22;52067;50.710;14.492;2022-12-13T11:19:55;10.45;32.59
65470;DHT22;52067;50.710;14.492;2022-12-13T11:22:24;10.11;33.34
65470;DHT22;52067;50.710;14.492;2022-12-13T11:24:55;8.74;36.18
65470;DHT22;52067;50.710;14.492;2022-12-13T11:30:16;9.01;33.99
65470;DHT22;52067;50.710;14.492;2022-12-13T11:33:08;8.03;38.68
65470;DHT22;52067;50.710;14.492;2022-12-13T11:35:54;6.96;41.34
65470;DHT22;52067;50.710;14.492;2022-12-13T11:41:41;7.84;37.45
65470;DHT22;52067;50.710;14.492;2022-12-13T11:44:15;8.37;36.86
65470;DHT22;52067;50.710;14.492;2022-12-13T11:47:04;8.36;35.92
65470;DHT22;52067;50.710;14.492;2022-12-13T11:49:38;5.13;39.76
65470;DHT22;52067;50.710;14.492;2022-12-13T11:52:19;7.15;37.81
65470;DHT22;52067;50.710;14.492;2022-12-13T12:00:21;5.52;40.23
65470;DHT22;52067;50.710;14.492;2022-12-13T12:02:50;4.80;43.82
65470;DHT22;52067;50.710;14.492;2022-12-13T12:05:30;6.05;40.96
65470;DHT22;52067;50.710;14.492;2022-12-13T12:08:04;5.21;45.45
65470;DHT22;52067;50.710;14.492;2022-12-13T12:13:09;7.29;39.01
65470;DHT22;52067;50.710;14.492;2022-12-13T12:15:42;5.56;43.27
65470;DHT22;52067;50.710;14.492;2022-12-13T12:18:13;6.82;39.34
65470;DHT22;52067;50.710;14.492;2022-12-13T12:23:49;7.03;38.41
65470;DHT22;52067;50.710;14.492;2022-12-13T12:26:23;7.47;36.84
65470;DHT22;52067;50.710;14.492;2022-12-13T12:45:44;3.63;46.23
65470;DHT22;52067;50.710;14.492;2022-12-13T12:53:44;2.61;48.93
65470;DHT22;52067;50.710;14.492;2022-12-13T12:56:23;2.26;46.64
65470;DHT22;52067;50.710;14.492;2022-12-13T13:00:17;1.08;51.92
65470;DHT22;52067;50.710;14.492;2022-12-13T13:02:22;0.01;55.71
65470;DHT22;52067;50.710;14.492;2022-12-13T13:04:55;-0.42;57.97
65470;DHT22;52067;50.710;14.492;2022-12-13T13:07:28;-0.49;57.41
65470;DHT22;52067;50.710;14.492;2022-12-13T13:09:56;-0.69;55.68
65470;DHT22;52067;50.710;14.492;2022-12-13T13:12:24;-1.04;57.87
65470;DHT22;52067;50.710;14.492;2022-12-13T13:14:49;-0.45;56.37
65470;DHT22;52067;50.710;14.492;2022-12-13T13:22:32;3.42;46.59
65470;DHT22;52067;50.710;14.492;2022-12-13T13:25:12;1.84;49.29
65470;DHT22;52067;50.710;14.492;2022-12-13T13:27:42;1.73;51.23
65470;DHT22;52067;50.710;14.492;2022-12-13T13:30:22;1.56;50.88
65470;DHT22;52067;50.710;14.492;2022-12-13T13:32:49;1.36;50.85
65470;DHT22;52067;50.710;14.492;2022-12-13T13:37:53;0.50;52.57
65470;DHT22;52067;50.710;14.492;2022-12-13T13:45:51;-0.26;56.48
65470;DHT22;52067;50.710;14.492;2022-12-13T13:48:35;-1.59;58.70
65470;DHT22;52067;50.710;14.492;2022-12-13T13:51:14;-1.21;59.45
65470;DHT22;52067;50.710;14.492;2022-12-13T14:01:59;-0.93;56.75
65470;DHT22;52067;50.710;14.492;2022-12-13T14:13:15;0.23;52.41
65470;DHT22;52067;50.710;14.492;2022-12-13T14:22:12;-0.48;54.19
65470;DHT22;52067;50.710;14.492;2022-12-13T14:24:56;-0.56;55.07
65470;DHT22;52067;50.710;14.492;2022-12-13T14:27:46;-0.69;55.36
65470;DHT22;52067;50.710;14.492;2022-12-13T14:30:16;-1.49;58.64
65470;DHT22;52067;50.710;14.492;2022-12-13T14:32:42;-1.90;61.21
65470;DHT22;52067;50.710;14.492;2022-12-13T14:35:31;-2.34;61.22
65470;DHT22;52067;50.710;14.492;2022-12-13T14:37:57;-2.61;63.57
65470;DHT22;52067;50.710;14.492;2022-12-13T14:40:46;-2.56;63.95
65470;DHT22;52067;50.710;14.492;2022-12-13T14:43:33;-2.68;64.20
65470;DHT22;52067;50.710;14.492;2022-12-13T14:46:01;-2.86;63.04
65470;DHT22;52067;50.710;14.492;2022-12-13T14:48:33;-3.08;61.02
65470;DHT22;52067;50.710;14.492;2022-12-13T14:51:00;-3.47;63.02
65470;DHT22;52067;50.710;14.492;2022-12-13T14:53:33;-3.96;67.41
65470;DHT22;52067;50.710;14.492;2022-12-13T14:56:12;-4.02;69.82
65470;DHT22;52067;50.710;14.492;2022-12-13T14:58:38;-4.34;68.16
65470;DHT22;52067;50.710;14.492;2022-12-13T15:01:27;-5.00;69.16
65470;DHT22;52067;50.710;14.492;2022-12-13T15:03:52;-5.27;70.05
65470;DHT22;52067;50.710;14.492;2022-12-13T15:06:18;-5.47;69.94
65470;DHT22;52067;50.710;14.492;2022-12-13T15:08:46;-5.54;70.85
65470;DHT22;52067;50.710;14.492;2022-12-13T15:11:11;-5.85;74.62
65470;DHT22;52067;50.710;14.492;2022-12-13T15:13:46;-6.48;77.22
65470;DHT22;52067;50.710;14.492;2022-12-13T15:16:17;-6.65;77.50
65470;DHT22;52067;50.710;14.492;2022-12-13T15:18:45;-6.64;74.78
65470;DHT22;52067;50.710;14.492;2022-12-13T15:21:21;-6.48;73.85
65470;DHT22;52067;50.710;14.492;2022-12-13T15:23:47;-6.51;75.10
65470;DHT22;52067;50.710;14.492;2022-12-13T15:26:20;-6.54;73.51
65470;DHT22;52067;50.710;14.492;2022-12-13T15:28:49;-6.85;74.25
65470;DHT22;52067;50.710;14.492;2022-12-13T15:31:17;-6.89;75.44
65470;DHT22;52067;50.710;14.492;2022-12-13T15:33:43;-6.84;77.04
65470;DHT22;52067;50.710;14.492;2022-12-13T15:36:26;-7.20;76.20
65470;DHT22;52067;50.710;14.492;2022-12-13T15:41:18;-7.62;79.52
65470;DHT22;52067;50.710;14.492;2022-12-13T15:43:47;-7.64;76.45
65470;DHT22;52067;50.710;14.492;2022-12-13T15:46:13;-7.78;77.46
65470;DHT22;52067;50.710;14.492;2022-12-13T15:48:47;-7.82;77.22
65470;DHT22;52067;50.710;14.492;2022-12-13T15:51:17;-7.82;78.46
65470;DHT22;52067;50.710;14.492;2022-12-13T15:56:37;-8.09;79.59
65470;DHT22;52067;50.710;14.492;2022-12-13T15:59:05;-8.30;79.01
65470;DHT22;52067;50.710;14.492;2022-12-13T16:01:33;-8.23;79.28
65470;DHT22;52067;50.710;14.492;2022-12-13T16:03:59;-8.44;80.82
65470;DHT22;52067;50.710;14.492;2022-12-13T16:06:29;-8.61;81.44
65470;DHT22;52067;50.710;14.492;2022-12-13T16:08:57;-8.94;82.53
65470;DHT22;52067;50.710;14.492;2022-12-13T16:11:32;-9.01;82.22
65470;DHT22;52067;50.710;14.492;2022-12-13T16:14:34;-8.99;81.13
65470;DHT22;52067;50.710;14.492;2022-12-13T16:17:23;-8.99;82.07
65470;DHT22;52067;50.710;14.492;2022-12-13T16:19:53;-8.95;82.74
65470;DHT22;52067;50.710;14.492;2022-12-13T16:22:19;-8.87;81.75
65470;DHT22;52067;50.710;14.492;2022-12-13T16:24:50;-8.72;80.71
65470;DHT22;52067;50.710;14.492;2022-12-13T16:27:16;-9.16;80.60
65470;DHT22;52067;50.710;14.492;2022-12-13T16:29:42;-9.51;83.31
65470;DHT22;52067;50.710;14.492;2022-12-13T16:32:07;-9.84;83.72
65470;DHT22;52067;50.710;14.492;2022-12-13T16:34:32;-9.57;83.75
65470;DHT22;52067;50.710;14.492;2022-12-13T16:36:58;-9.67;82.64
65470;DHT22;52067;50.710;14.492;2022-12-13T16:39:24;-9.98;83.42
65470;DHT22;52067;50.710;14.492;2022-12-13T16:41:50;-9.99;85.29
65470;DHT22;52067;50.710;14.492;2022-12-13T16:44:35;-9.67;84.02
65470;DHT22;52067;50.710;14.492;2022-12-13T16:47:06;-9.94;81.69
65470;DHT22;52067;50.710;14.492;2022-12-13T16:49:32;-10.09;83.42
65470;DHT22;52067;50.710;14.492;2022-12-13T16:51:57;-10.32;83.57
65470;DHT22;52067;50.710;14.492;2022-12-13T16:54:24;-10.38;84.84
65470;DHT22;52067;50.710;14.492;2022-12-13T16:56:51;-10.12;83.84
65470;DHT22;52067;50.710;14.492;2022-12-13T16:59:19;-10.53;84.49
65470;DHT22;52067;50.710;14.492;2022-12-13T17:01:45;-10.73;84.85
65470;DHT22;52067;50.710;14.492;2022-12-13T17:04:13;-10.76;85.21
65470;DHT22;52067;50.710;14.492;2022-12-13T17:06:39;-11.11;85.66
65470;DHT22;52067;50.710;14.492;2022-12-13T17:09:05;-10.71;85.00
65470;DHT22;52067;50.710;14.492;2022-12-13T17:11:32;-10.56;83.06
65470;DHT22;52067;50.710;14.492;2022-12-13T17:13:58;-10.69;83.27
65470;DHT22;52067;50.710;14.492;2022-12-13T17:16:24;-10.69;84.05
65470;DHT22;52067;50.710;14.492;2022-12-13T17:18:50;-10.69;84.27
65470;DHT22;52067;50.710;14.492;2022-12-13T17:21:15;-10.73;84.00
65470;DHT22;52067;50.710;14.492;2022-12-13T17:23:41;-10.87;85.30
65470;DHT22;52067;50.710;14.492;2022-12-13T17:26:09;-10.92;84.97
65470;DHT22;52067;50.710;14.492;2022-12-13T17:28:34;-10.92;85.11
65470;DHT22;52067;50.710;14.492;2022-12-13T17:31:07;-10.85;84.71
65470;DHT22;52067;50.710;14.492;2022-12-13T17:33:33;-11.18;83.73
65470;DHT22;52067;50.710;14.492;2022-12-13T17:36:03;-11.38;84.39